Mc Call Municipal Airport
KMYL : now visible

Airfield :











YOU CAN JOIN US ON...

 
LOGIN :

Register | Disclaimer

   EN    FR    IT 

 









Legend :    VFR   Marginal VFR   IFR   Intensive IFR   Very Intensive IFR
Visi :
Ceiling :
>= 8 km
>= 3000ft
5 to 8 km
1000 to 3000 ft
1500m to 5 km
500 to 1000 ft
800 to 1500m
200 to 500 ft
< 800m
< 200 ft
Symbols :   Thunderstorms  Fog  Heavy snow  Heavy precipitations  Wind > 20 kt






- Airport Elevation : 5024 ft


KMYL - Mc Call Municipal

CURRENT METAR :
  • 232051Z AUTO VRB03KT 10SM CLR 26/05 A3004 RMK AO2 SLP127 T02560050 58004

EXPIRED METARs :
  • 231951Z AUTO 00000KT 10SM CLR 25/07 A3005 RMK AO2 SLP131 T02500067
  • 231851Z AUTO VRB03KT 10SM CLR 23/07 A3005 RMK AO2 SLP135 T02280072

TAF KMYL
Valid from the 23 at 18:00 until the 24 at 18:00 UTC


231731Z 2318/2418 17007KT P6SM SKC
FM240200 30015G25KT P6SM VCTS BKN100CB
FM240700 VRB05KT P6SM SCT100
FM241000 VRB03KT P6SM VCFG SKC
KZLC FIR / North America



MET'MAP, your aeronautical weather chart ! - Copyright ORBIFLY December 2007 - Disclaimer

ORBIFLY MET'MAP TEAM :

Programming & Development : Alexandra Zaïnal
Concept & original design : Baudouin d'Aumeries
Assistance for programming : Marc-Olivier Méhu
Technical & hardware support : Manuel Goepfert

Contact : metmap@orbifly.com




SOURCES & CREDITS :

   NOAA       Earth
Advisory